createdAt,value
2023-02-11T00:00:31.266Z,64.81
2023-02-11T00:03:18.188Z,64.27
2023-02-11T00:05:45.170Z,64.30
2023-02-11T00:08:16.491Z,65.08
2023-02-11T00:10:45.901Z,64.72
2023-02-11T00:13:12.872Z,64.50
2023-02-11T00:15:39.793Z,64.51
2023-02-11T00:18:06.634Z,64.38
2023-02-11T00:20:33.526Z,64.36
2023-02-11T00:23:00.676Z,64.48
2023-02-11T00:25:27.624Z,64.36
2023-02-11T00:27:54.577Z,64.13
2023-02-11T00:30:21.566Z,64.41
2023-02-11T00:32:48.602Z,64.62
2023-02-11T00:35:15.796Z,64.73
2023-02-11T00:37:42.643Z,64.52
2023-02-11T00:40:11.273Z,64.49
2023-02-11T00:42:38.273Z,64.23
2023-02-11T00:45:05.371Z,64.13
2023-02-11T00:47:32.196Z,64.06
2023-02-11T00:50:00.467Z,63.90
2023-02-11T00:52:28.021Z,63.71
2023-02-11T00:54:54.969Z,63.41
2023-02-11T00:57:22.105Z,63.26
2023-02-11T00:59:50.153Z,63.00
2023-02-11T01:02:17.686Z,62.88
2023-02-11T01:04:44.510Z,62.86
2023-02-11T01:07:11.504Z,63.03
2023-02-11T01:09:38.666Z,62.95
2023-02-11T01:12:05.985Z,62.93
2023-02-11T01:14:33.100Z,63.02
2023-02-11T01:17:00.054Z,63.06
2023-02-11T01:19:26.999Z,63.09
2023-02-11T01:21:53.925Z,63.12
2023-02-11T01:24:22.277Z,62.97
2023-02-11T01:26:49.316Z,63.03
2023-02-11T01:29:16.462Z,62.88
2023-02-11T01:31:43.528Z,62.87
2023-02-11T01:34:10.360Z,62.84
2023-02-11T01:36:37.433Z,62.81
2023-02-11T01:39:04.506Z,62.73
2023-02-11T01:41:31.472Z,62.88
2023-02-11T01:43:58.311Z,63.00
2023-02-11T01:46:35.431Z,63.02
2023-02-11T01:49:05.499Z,63.13
2023-02-11T01:51:43.451Z,63.89
2023-02-11T01:54:31.352Z,63.66
2023-02-11T01:57:18.471Z,63.60
2023-02-11T01:59:45.615Z,63.82
2023-02-11T02:02:14.772Z,63.74
2023-02-11T02:04:53.305Z,63.39
2023-02-11T02:07:32.253Z,63.59
2023-02-11T02:10:03.161Z,63.48
2023-02-11T02:12:30.282Z,63.47
2023-02-11T02:15:20.608Z,63.35
2023-02-11T02:17:59.231Z,63.34
2023-02-11T02:20:45.077Z,63.40
2023-02-11T02:23:21.947Z,63.59
2023-02-11T02:26:01.216Z,63.62
2023-02-11T02:28:41.105Z,63.66
2023-02-11T02:31:26.860Z,63.32
2023-02-11T02:34:09.750Z,63.48
2023-02-11T02:36:39.361Z,63.53
2023-02-11T02:39:08.662Z,63.59
2023-02-11T02:41:36.722Z,63.29
2023-02-11T02:44:04.284Z,63.33
2023-02-11T02:46:32.282Z,63.30
2023-02-11T02:48:59.862Z,63.07
2023-02-11T02:51:48.156Z,63.20
2023-02-11T02:54:17.886Z,63.36
2023-02-11T02:56:45.006Z,63.70
2023-02-11T02:59:35.234Z,63.40
2023-02-11T03:02:25.161Z,63.83
2023-02-11T03:04:58.084Z,64.18
2023-02-11T03:07:41.386Z,64.08
2023-02-11T03:10:14.004Z,63.91
2023-02-11T03:12:42.119Z,63.92
2023-02-11T03:15:10.863Z,63.87
2023-02-11T03:17:40.354Z,63.82
2023-02-11T03:20:10.197Z,63.84
2023-02-11T03:22:40.160Z,63.69
2023-02-11T03:25:07.274Z,63.74
2023-02-11T03:27:34.156Z,64.00
2023-02-11T03:30:05.261Z,63.90
2023-02-11T03:32:35.848Z,63.73
2023-02-11T03:35:05.557Z,63.80
2023-02-11T03:37:50.034Z,63.87
2023-02-11T03:40:20.064Z,63.67
2023-02-11T03:43:00.604Z,63.82
2023-02-11T03:45:28.330Z,63.86
2023-02-11T03:47:58.186Z,63.92
2023-02-11T03:50:25.918Z,65.06
2023-02-11T03:52:53.911Z,64.60
2023-02-11T03:55:22.742Z,64.45
2023-02-11T03:57:49.816Z,64.25
2023-02-11T04:00:16.778Z,64.24
2023-02-11T04:02:44.161Z,64.41
2023-02-11T04:05:13.227Z,63.78
2023-02-11T04:07:40.277Z,64.35
2023-02-11T04:10:07.439Z,64.66
2023-02-11T04:12:34.346Z,64.55
2023-02-11T04:15:01.239Z,65.24
2023-02-11T04:17:28.133Z,65.59
2023-02-11T04:19:54.998Z,65.63
2023-02-11T04:22:21.829Z,65.46
2023-02-11T04:24:48.813Z,65.27
2023-02-11T04:27:15.933Z,65.75
2023-02-11T04:29:42.933Z,65.87
2023-02-11T04:32:10.791Z,66.11
2023-02-11T04:34:37.830Z,66.21
2023-02-11T04:37:04.689Z,66.42
2023-02-11T04:39:31.534Z,66.15
2023-02-11T04:41:58.487Z,66.38
2023-02-11T04:44:25.432Z,66.44
2023-02-11T04:46:52.781Z,66.34
2023-02-11T04:49:19.846Z,66.35
2023-02-11T04:51:49.279Z,66.45
2023-02-11T04:54:17.139Z,66.39
2023-02-11T04:56:44.256Z,66.45
2023-02-11T04:59:12.801Z,66.72
2023-02-11T05:01:39.887Z,65.91
2023-02-11T05:04:06.874Z,65.89
2023-02-11T05:06:33.927Z,66.10
2023-02-11T05:09:00.762Z,66.39
2023-02-11T05:11:27.648Z,66.51
2023-02-11T05:13:54.560Z,66.63
2023-02-11T05:16:21.509Z,66.85
2023-02-11T05:18:52.330Z,66.63
2023-02-11T05:21:19.613Z,66.67
2023-02-11T05:23:46.821Z,66.67
2023-02-11T05:26:14.357Z,66.46
2023-02-11T05:28:41.825Z,66.40
2023-02-11T05:31:09.362Z,66.45
2023-02-11T05:33:36.354Z,66.64
2023-02-11T05:36:07.952Z,66.66
2023-02-11T05:38:35.602Z,66.56
2023-02-11T05:41:03.573Z,66.64
2023-02-11T05:43:30.510Z,66.40
2023-02-11T05:45:57.568Z,66.33
2023-02-11T05:48:24.550Z,66.22
2023-02-11T05:50:51.398Z,66.19
2023-02-11T05:53:18.251Z,66.46
2023-02-11T05:55:45.420Z,66.68
2023-02-11T05:58:13.135Z,66.77
2023-02-11T06:00:40.180Z,67.69
2023-02-11T06:03:07.577Z,68.12
2023-02-11T06:05:34.475Z,68.13
2023-02-11T06:08:01.401Z,68.09
2023-02-11T06:10:28.370Z,67.89
2023-02-11T06:12:55.315Z,68.62
2023-02-11T06:15:22.264Z,68.68
2023-02-11T06:17:49.194Z,68.49
2023-02-11T06:20:16.163Z,68.38
2023-02-11T06:22:43.216Z,67.87
2023-02-11T06:25:10.804Z,67.90
2023-02-11T06:27:38.030Z,68.10
2023-02-11T06:30:05.991Z,68.18
2023-02-11T06:32:43.915Z,68.15
2023-02-11T06:35:12.765Z,68.21
2023-02-11T06:37:40.524Z,67.63
2023-02-11T06:40:07.500Z,67.27
2023-02-11T06:42:35.612Z,67.09
2023-02-11T06:45:05.421Z,67.91
2023-02-11T06:47:32.347Z,68.58
2023-02-11T06:49:59.274Z,69.47
2023-02-11T06:52:26.279Z,69.65
2023-02-11T06:54:53.246Z,70.09
2023-02-11T06:57:20.139Z,70.40
2023-02-11T06:59:47.091Z,70.09
2023-02-11T07:02:14.072Z,69.55
2023-02-11T07:04:41.152Z,69.74
2023-02-11T07:07:08.059Z,70.00
2023-02-11T07:09:34.971Z,69.15
2023-02-11T07:12:01.875Z,68.98
2023-02-11T07:14:28.749Z,69.19
2023-02-11T07:16:55.628Z,69.00
2023-02-11T07:19:22.595Z,69.23
2023-02-11T07:21:49.554Z,69.25
2023-02-11T07:24:16.673Z,69.29
2023-02-11T07:26:44.406Z,68.94
2023-02-11T07:29:11.381Z,68.46
2023-02-11T07:31:38.326Z,67.84
2023-02-11T07:34:05.424Z,67.81
2023-02-11T07:36:32.407Z,67.46
2023-02-11T07:38:59.947Z,67.30
2023-02-11T07:41:27.416Z,67.08
2023-02-11T07:43:54.709Z,66.79
2023-02-11T07:46:26.195Z,66.34
2023-02-11T07:48:53.243Z,66.26
2023-02-11T07:51:27.267Z,66.25
2023-02-11T07:53:55.180Z,65.70
2023-02-11T07:56:22.691Z,64.81
2023-02-11T07:58:49.948Z,64.50
2023-02-11T08:01:18.169Z,63.52
2023-02-11T08:03:45.330Z,63.53
2023-02-11T08:06:13.670Z,62.80
2023-02-11T08:08:41.060Z,61.15
2023-02-11T08:11:09.022Z,60.53
2023-02-11T08:13:36.009Z,60.21
2023-02-11T08:16:03.729Z,60.26
2023-02-11T08:18:30.875Z,59.71
2023-02-11T08:21:03.259Z,59.09
2023-02-11T08:23:30.087Z,58.56
2023-02-11T08:26:00.758Z,57.88
2023-02-11T08:28:27.651Z,58.74
2023-02-11T08:30:54.602Z,58.76
2023-02-11T08:33:21.468Z,58.53
2023-02-11T08:35:48.347Z,57.66
2023-02-11T08:38:15.265Z,57.26
2023-02-11T08:40:42.182Z,56.93
2023-02-11T08:43:09.012Z,56.66
2023-02-11T08:45:37.072Z,56.62
2023-02-11T08:48:03.995Z,55.92
2023-02-11T08:50:31.821Z,55.58
2023-02-11T08:52:58.694Z,55.72
2023-02-11T08:55:26.289Z,54.97
2023-02-11T08:57:53.254Z,54.81
2023-02-11T09:00:20.360Z,54.27
2023-02-11T09:02:47.185Z,51.51
2023-02-11T09:05:14.176Z,51.70
2023-02-11T09:07:40.988Z,51.74
2023-02-11T09:10:08.345Z,52.03
2023-02-11T09:12:35.290Z,52.28
2023-02-11T09:15:02.391Z,52.59
2023-02-11T09:17:29.276Z,52.18
2023-02-11T09:19:56.141Z,52.27
2023-02-11T09:22:23.060Z,50.31
2023-02-11T09:24:50.031Z,50.22
2023-02-11T09:27:16.914Z,49.42
2023-02-11T09:29:43.896Z,48.38
2023-02-11T09:32:10.960Z,46.73
2023-02-11T09:34:38.000Z,45.90
2023-02-11T09:37:04.994Z,43.58
2023-02-11T09:39:31.815Z,42.06
2023-02-11T09:42:14.424Z,42.45
2023-02-11T09:44:44.320Z,43.07
2023-02-11T09:47:30.024Z,43.76
2023-02-11T09:49:59.990Z,43.43
2023-02-11T09:52:36.717Z,43.91
2023-02-11T09:55:11.214Z,43.43
2023-02-11T09:57:38.075Z,44.61
2023-02-11T10:00:16.863Z,45.50
2023-02-11T10:02:49.906Z,45.16
2023-02-11T10:05:36.700Z,45.02
2023-02-11T10:08:11.987Z,45.92
2023-02-11T10:10:42.032Z,46.45
2023-02-11T10:13:44.682Z,46.54
2023-02-11T10:16:20.428Z,47.25
2023-02-11T10:18:50.206Z,48.12
2023-02-11T10:21:20.088Z,48.37
2023-02-11T10:23:51.320Z,48.14
2023-02-11T10:26:18.709Z,47.76
2023-02-11T10:28:47.150Z,47.62
2023-02-11T10:31:40.285Z,47.93
2023-02-11T10:34:09.804Z,48.28
2023-02-11T10:36:38.298Z,48.87
2023-02-11T10:39:14.681Z,48.40
2023-02-11T10:41:44.557Z,47.26
2023-02-11T10:44:31.704Z,48.23
2023-02-11T10:47:01.414Z,49.06
2023-02-11T10:49:34.780Z,48.59
2023-02-11T10:52:15.772Z,47.93
2023-02-11T10:54:55.028Z,46.60
2023-02-11T10:57:24.336Z,46.12
2023-02-11T10:59:56.578Z,47.76
2023-02-11T11:02:23.941Z,47.84
2023-02-11T11:04:55.932Z,46.31
2023-02-11T11:07:27.796Z,46.65
2023-02-11T11:10:01.948Z,47.18
2023-02-11T11:12:31.272Z,46.40
2023-02-11T11:15:00.717Z,45.79
2023-02-11T11:17:30.786Z,45.49
2023-02-11T11:20:14.247Z,46.03
2023-02-11T11:22:41.906Z,46.54
2023-02-11T11:25:29.061Z,47.67
2023-02-11T11:27:58.732Z,47.12
2023-02-11T11:30:34.245Z,47.47
2023-02-11T11:33:01.739Z,47.66
2023-02-11T11:35:29.946Z,47.91
2023-02-11T11:38:01.762Z,48.06
2023-02-11T11:40:30.513Z,48.19
2023-02-11T11:43:03.442Z,48.60
2023-02-11T11:45:30.363Z,48.98
2023-02-11T11:48:00.337Z,48.60
2023-02-11T11:50:30.227Z,48.29
2023-02-11T11:53:19.881Z,48.76
2023-02-11T11:55:59.589Z,48.77
2023-02-11T11:58:27.648Z,48.82
2023-02-11T12:01:10.524Z,48.97
2023-02-11T12:03:37.308Z,48.82
2023-02-11T12:06:15.665Z,49.16
2023-02-11T12:08:45.479Z,49.93
2023-02-11T12:11:18.744Z,49.49
2023-02-11T12:13:57.254Z,48.48
2023-02-11T12:16:24.110Z,48.77
2023-02-11T12:18:51.169Z,48.38
2023-02-11T12:21:24.018Z,48.57
2023-02-11T12:24:04.567Z,48.19
2023-02-11T12:26:36.780Z,48.05
2023-02-11T12:29:06.475Z,48.34
2023-02-11T12:31:33.341Z,48.37
2023-02-11T12:34:09.156Z,48.70
2023-02-11T12:36:54.813Z,49.72
2023-02-11T12:39:27.614Z,49.33
2023-02-11T12:42:32.312Z,49.28
2023-02-11T12:45:05.491Z,49.01
2023-02-11T12:47:42.550Z,49.16
2023-02-11T12:50:15.514Z,49.44
2023-02-11T12:52:57.670Z,49.20
2023-02-11T12:55:29.700Z,50.11
2023-02-11T12:57:58.816Z,50.83
2023-02-11T13:00:30.841Z,49.60
2023-02-11T13:03:10.712Z,50.50
2023-02-11T13:05:40.210Z,50.75
2023-02-11T13:08:13.040Z,50.33
2023-02-11T13:10:41.480Z,49.91
2023-02-11T13:13:30.066Z,50.10
2023-02-11T13:16:09.835Z,49.87
2023-02-11T13:18:36.991Z,51.54
2023-02-11T13:21:16.163Z,50.94
2023-02-11T13:23:54.045Z,50.05
2023-02-11T13:26:40.729Z,49.53
2023-02-11T13:29:19.929Z,49.85
2023-02-11T13:31:54.218Z,50.16
2023-02-11T13:34:25.889Z,50.87
2023-02-11T13:36:57.073Z,49.94
2023-02-11T13:39:24.217Z,50.16
2023-02-11T13:42:01.454Z,50.10
2023-02-11T13:44:28.424Z,50.06
2023-02-11T13:47:04.378Z,49.97
2023-02-11T13:49:41.741Z,49.38
2023-02-11T13:52:27.050Z,49.70
2023-02-11T13:54:55.402Z,49.53
2023-02-11T13:57:26.575Z,49.10
2023-02-11T13:59:58.448Z,49.80
2023-02-11T14:02:52.028Z,49.69
2023-02-11T14:05:42.598Z,49.90
2023-02-11T14:08:28.349Z,49.89
2023-02-11T14:10:55.180Z,50.62
2023-02-11T14:13:26.596Z,51.35
2023-02-11T14:16:09.922Z,51.49
2023-02-11T14:18:39.633Z,51.95
2023-02-11T14:21:12.579Z,51.76
2023-02-11T14:23:40.557Z,52.68
2023-02-11T14:26:10.455Z,52.82
2023-02-11T14:28:38.421Z,52.96
2023-02-11T14:31:19.417Z,53.17
2023-02-11T14:33:49.494Z,53.33
2023-02-11T14:36:16.423Z,52.89
2023-02-11T14:39:09.622Z,52.95
2023-02-11T14:41:41.414Z,52.99
2023-02-11T14:44:14.097Z,52.44
2023-02-11T14:46:45.144Z,52.62
2023-02-11T14:49:17.585Z,52.43
2023-02-11T14:51:44.533Z,52.56
2023-02-11T14:54:14.793Z,52.93
2023-02-11T14:56:42.073Z,53.53
2023-02-11T14:59:15.993Z,53.44
2023-02-11T15:01:45.324Z,53.46
2023-02-11T15:04:26.021Z,53.42
2023-02-11T15:06:53.668Z,53.92
2023-02-11T15:09:28.911Z,55.32
2023-02-11T15:11:57.399Z,57.15
2023-02-11T15:14:24.249Z,56.82
2023-02-11T15:16:55.541Z,56.76
2023-02-11T15:19:22.472Z,57.12
2023-02-11T15:21:50.333Z,57.20
2023-02-11T15:24:23.931Z,56.88
2023-02-11T15:26:57.813Z,57.32
2023-02-11T15:29:26.342Z,57.53
2023-02-11T15:32:04.408Z,57.91
2023-02-11T15:34:31.915Z,57.22
2023-02-11T15:36:58.833Z,57.29
2023-02-11T15:39:35.143Z,57.71
2023-02-11T15:42:17.515Z,56.70
2023-02-11T15:44:44.950Z,57.68
2023-02-11T15:47:13.265Z,58.03
2023-02-11T15:49:43.819Z,57.44
2023-02-11T15:52:12.218Z,57.81
2023-02-11T15:54:39.696Z,57.99
2023-02-11T15:57:09.383Z,57.64
2023-02-11T15:59:38.478Z,57.59
2023-02-11T16:02:08.189Z,58.29
2023-02-11T16:04:35.712Z,58.89
2023-02-11T16:07:02.632Z,58.78
2023-02-11T16:09:34.287Z,58.75
2023-02-11T16:12:19.015Z,58.40
2023-02-11T16:14:46.461Z,58.85
2023-02-11T16:17:23.578Z,58.62
2023-02-11T16:19:51.563Z,58.83
2023-02-11T16:22:27.022Z,58.98
2023-02-11T16:24:55.709Z,58.75
2023-02-11T16:27:31.754Z,58.97
2023-02-11T16:29:58.752Z,59.43
2023-02-11T16:32:26.918Z,59.58
2023-02-11T16:34:55.202Z,59.69
2023-02-11T16:37:22.156Z,59.84
2023-02-11T16:39:49.069Z,60.10
2023-02-11T16:42:15.980Z,59.76
2023-02-11T16:44:42.922Z,59.82
2023-02-11T16:47:16.885Z,59.98
2023-02-11T16:49:43.896Z,59.77
2023-02-11T16:52:15.335Z,60.16
2023-02-11T16:54:42.493Z,60.41
2023-02-11T16:57:30.396Z,60.20
2023-02-11T16:59:58.756Z,62.49
2023-02-11T17:02:27.078Z,61.45
2023-02-11T17:04:54.680Z,60.88
2023-02-11T17:07:21.800Z,61.68
2023-02-11T17:09:48.752Z,61.61
2023-02-11T17:12:15.666Z,61.22
2023-02-11T17:14:42.491Z,61.16
2023-02-11T17:17:10.182Z,61.03
2023-02-11T17:19:37.348Z,61.32
2023-02-11T17:22:04.442Z,61.11
2023-02-11T17:24:31.634Z,60.98
2023-02-11T17:26:58.481Z,60.83
2023-02-11T17:29:25.827Z,61.13
2023-02-11T17:31:52.903Z,60.82
2023-02-11T17:34:20.847Z,60.82
2023-02-11T17:36:47.838Z,60.95
2023-02-11T17:39:14.762Z,60.92
2023-02-11T17:41:41.718Z,61.39
2023-02-11T17:44:10.207Z,61.65
2023-02-11T17:46:37.122Z,61.68
2023-02-11T17:49:03.940Z,61.63
2023-02-11T17:51:32.179Z,61.59
2023-02-11T17:54:00.927Z,61.81
2023-02-11T17:56:29.393Z,61.71
2023-02-11T17:58:56.316Z,61.86
2023-02-11T18:01:26.376Z,61.84
2023-02-11T18:03:53.212Z,62.11
2023-02-11T18:06:21.161Z,63.53
2023-02-11T18:08:48.118Z,64.12
2023-02-11T18:11:15.898Z,63.55
2023-02-11T18:13:43.340Z,62.92
2023-02-11T18:16:15.009Z,62.76
2023-02-11T18:18:42.610Z,62.61
2023-02-11T18:21:13.489Z,62.72
2023-02-11T18:23:40.924Z,62.61
2023-02-11T18:26:08.406Z,62.72
2023-02-11T18:28:35.374Z,62.30
2023-02-11T18:31:02.749Z,62.31
2023-02-11T18:33:30.053Z,62.55
2023-02-11T18:35:57.222Z,62.58
2023-02-11T18:38:24.446Z,62.62
2023-02-11T18:40:51.888Z,62.90
2023-02-11T18:43:19.490Z,62.61
2023-02-11T18:45:47.318Z,62.08
2023-02-11T18:48:14.831Z,61.92
2023-02-11T18:50:44.097Z,61.69
2023-02-11T18:53:11.842Z,61.56
2023-02-11T18:55:39.487Z,61.59
2023-02-11T18:58:06.725Z,61.56
2023-02-11T19:00:34.384Z,61.61
2023-02-11T19:03:01.461Z,61.80
2023-02-11T19:05:32.743Z,61.63
2023-02-11T19:08:00.157Z,61.74
2023-02-11T19:10:27.771Z,61.41
2023-02-11T19:13:00.812Z,61.67
2023-02-11T19:15:28.040Z,61.77
2023-02-11T19:17:55.024Z,61.48
2023-02-11T19:20:21.926Z,61.57
2023-02-11T19:22:48.803Z,61.44
2023-02-11T19:25:15.654Z,61.80
2023-02-11T19:27:42.638Z,61.80
2023-02-11T19:30:09.935Z,61.65
2023-02-11T19:32:36.973Z,61.78
2023-02-11T19:35:03.967Z,61.83
2023-02-11T19:37:30.886Z,62.09
2023-02-11T19:39:57.836Z,60.71
2023-02-11T19:42:27.490Z,61.82
2023-02-11T19:44:54.723Z,62.13
2023-02-11T19:47:27.262Z,62.67
2023-02-11T19:49:54.613Z,62.40
2023-02-11T19:52:21.515Z,62.63
2023-02-11T19:54:48.483Z,63.15
2023-02-11T19:57:15.337Z,62.82
2023-02-11T19:59:42.187Z,63.16
2023-02-11T20:02:12.412Z,63.24
2023-02-11T20:04:39.479Z,63.43
2023-02-11T20:07:06.437Z,63.46
2023-02-11T20:09:33.298Z,63.37
2023-02-11T20:12:00.216Z,63.37
2023-02-11T20:14:28.162Z,63.50
2023-02-11T20:16:55.160Z,63.47
2023-02-11T20:19:22.121Z,63.44
2023-02-11T20:21:51.535Z,63.58
2023-02-11T20:24:19.044Z,63.74
2023-02-11T20:26:47.655Z,63.98
2023-02-11T20:29:18.148Z,64.78
2023-02-11T20:31:45.279Z,64.90
2023-02-11T20:34:12.570Z,64.64
2023-02-11T20:36:39.940Z,64.34
2023-02-11T20:39:07.285Z,64.35
2023-02-11T20:41:35.302Z,64.31
2023-02-11T20:44:04.393Z,64.09
2023-02-11T20:46:32.517Z,64.06
2023-02-11T20:49:00.190Z,64.11
2023-02-11T20:51:29.974Z,64.07
2023-02-11T20:53:57.101Z,63.94
2023-02-11T20:56:28.166Z,64.22
2023-02-11T20:58:56.413Z,64.09
2023-02-11T21:01:28.143Z,64.51
2023-02-11T21:03:56.629Z,64.24
2023-02-11T21:06:25.151Z,64.39
2023-02-11T21:08:52.918Z,64.42
2023-02-11T21:11:20.139Z,64.08
2023-02-11T21:13:48.194Z,64.06
2023-02-11T21:16:16.881Z,64.17
2023-02-11T21:18:46.165Z,64.13
2023-02-11T21:21:13.068Z,64.39
2023-02-11T21:23:40.073Z,64.14
2023-02-11T21:26:07.496Z,64.54
2023-02-11T21:28:35.253Z,64.18
2023-02-11T21:31:02.975Z,64.26
2023-02-11T21:33:33.007Z,64.38
2023-02-11T21:36:01.166Z,64.50
2023-02-11T21:38:28.220Z,64.36
2023-02-11T21:40:55.042Z,64.22
2023-02-11T21:43:21.978Z,64.39
2023-02-11T21:45:49.728Z,64.26
2023-02-11T21:48:17.308Z,63.99
2023-02-11T21:50:46.342Z,64.31
2023-02-11T21:53:13.408Z,64.11
2023-02-11T21:55:40.711Z,64.30
2023-02-11T21:58:07.674Z,64.37
2023-02-11T22:00:34.784Z,63.97
2023-02-11T22:03:01.788Z,64.32
2023-02-11T22:05:28.752Z,64.53
2023-02-11T22:07:55.816Z,64.45
2023-02-11T22:10:22.884Z,64.74
2023-02-11T22:12:49.764Z,64.72
2023-02-11T22:15:16.694Z,64.79
2023-02-11T22:17:43.506Z,64.91
2023-02-11T22:20:10.697Z,64.83
2023-02-11T22:22:37.727Z,64.65
2023-02-11T22:25:04.801Z,65.01
2023-02-11T22:27:31.786Z,64.99
2023-02-11T22:29:58.705Z,65.05
2023-02-11T22:32:25.720Z,65.12
2023-02-11T22:34:53.498Z,64.91
2023-02-11T22:37:20.481Z,64.99
2023-02-11T22:39:47.345Z,65.46
2023-02-11T22:42:14.326Z,65.32
2023-02-11T22:44:41.223Z,65.34
2023-02-11T22:47:08.109Z,65.62
2023-02-11T22:49:35.162Z,65.86
2023-02-11T22:52:03.036Z,66.06
2023-02-11T22:54:30.868Z,66.40
2023-02-11T22:56:57.784Z,66.10
2023-02-11T22:59:24.626Z,66.24
2023-02-11T23:01:51.744Z,66.22
2023-02-11T23:04:18.736Z,65.71
2023-02-11T23:06:47.144Z,65.35
2023-02-11T23:09:14.391Z,66.03
2023-02-11T23:11:41.500Z,66.06
2023-02-11T23:14:09.654Z,66.07
2023-02-11T23:16:36.619Z,65.17
2023-02-11T23:19:05.250Z,65.96
2023-02-11T23:21:33.028Z,66.06
2023-02-11T23:24:04.982Z,66.58
2023-02-11T23:26:31.974Z,66.26
2023-02-11T23:28:59.413Z,66.68
2023-02-11T23:31:28.288Z,66.76
2023-02-11T23:33:55.249Z,67.08
2023-02-11T23:36:23.069Z,67.42
2023-02-11T23:38:50.468Z,67.56
2023-02-11T23:41:17.735Z,67.82
2023-02-11T23:43:48.051Z,67.71
2023-02-11T23:46:15.021Z,67.49
2023-02-11T23:48:41.886Z,67.69
2023-02-11T23:51:09.368Z,67.83
2023-02-11T23:53:37.017Z,67.64
2023-02-11T23:56:08.467Z,67.80
2023-02-11T23:58:35.903Z,67.85
